createdAt,value
2018-02-04T00:02:22.213Z,96560.51
2018-02-04T00:04:50.126Z,96564.39
2018-02-04T00:07:17.745Z,96561.48
2018-02-04T00:09:46.682Z,96567.92
2018-02-04T00:12:14.193Z,96571.56
2018-02-04T00:14:41.945Z,96564.03
2018-02-04T00:17:09.452Z,96572.03
2018-02-04T00:19:36.995Z,96569.66
2018-02-04T00:22:04.541Z,96567.43
2018-02-04T00:24:32.053Z,96562.36
2018-02-04T00:27:00.410Z,96565.17
2018-02-04T00:29:27.922Z,96572.80
2018-02-04T00:31:55.450Z,96572.13
2018-02-04T00:34:23.018Z,96565.23
2018-02-04T00:36:50.669Z,96571.84
2018-02-04T00:39:18.309Z,96574.58
2018-02-04T00:41:45.824Z,96574.20
2018-02-04T00:44:13.362Z,96581.45
2018-02-04T00:46:40.905Z,96587.64
2018-02-04T00:49:08.418Z,96583.47
2018-02-04T00:51:36.073Z,96585.75
2018-02-04T00:54:03.593Z,96588.05
2018-02-04T00:56:31.103Z,96589.16
2018-02-04T00:58:59.517Z,96586.11
2018-02-04T01:01:27.037Z,96590.76
2018-02-04T01:03:54.609Z,96593.28
2018-02-04T01:06:22.125Z,96596.38
2018-02-04T01:08:49.638Z,96591.80
2018-02-04T01:11:17.181Z,96603.66
2018-02-04T01:13:44.693Z,96602.48
2018-02-04T01:16:16.285Z,96603.18
2018-02-04T01:18:43.878Z,96606.59
2018-02-04T01:21:11.836Z,96607.67
2018-02-04T01:23:39.377Z,96606.95
2018-02-04T01:26:06.890Z,96618.14
2018-02-04T01:28:34.608Z,96620.42
2018-02-04T01:31:02.151Z,96624.25
2018-02-04T01:33:30.176Z,96621.96
2018-02-04T01:35:57.719Z,96620.05
2018-02-04T01:38:25.670Z,96623.38
2018-02-04T01:40:53.225Z,96623.95
2018-02-04T01:43:20.741Z,96628.88
2018-02-04T01:45:48.328Z,96625.48
2018-02-04T01:48:16.734Z,96628.34
2018-02-04T01:53:11.102Z,96627.45
2018-02-04T01:55:38.618Z,96623.67
2018-02-04T01:58:06.128Z,96635.61
2018-02-04T02:00:33.681Z,96625.06
2018-02-04T02:03:01.207Z,96633.47
2018-02-04T02:05:28.838Z,96634.19
2018-02-04T02:07:56.363Z,96631.20
2018-02-04T02:10:23.881Z,96630.42
2018-02-04T02:12:51.428Z,96637.53
2018-02-04T02:15:18.950Z,96635.61
2018-02-04T02:17:46.593Z,96639.98
2018-02-04T02:20:14.105Z,96641.11
2018-02-04T02:22:41.624Z,96643.61
2018-02-04T02:25:09.161Z,96642.72
2018-02-04T02:27:36.677Z,96645.36
2018-02-04T02:30:04.248Z,96648.34
2018-02-04T02:32:31.769Z,96651.67
2018-02-04T02:34:59.298Z,96651.69
2018-02-04T02:37:26.878Z,96659.25
2018-02-04T02:39:54.394Z,96649.44
2018-02-04T02:42:22.189Z,96650.05
2018-02-04T02:44:49.701Z,96651.52
2018-02-04T02:47:17.233Z,96662.92
2018-02-04T02:49:44.774Z,96660.80
2018-02-04T02:52:12.329Z,96662.35
2018-02-04T02:54:39.917Z,96666.03
2018-02-04T02:57:07.450Z,96668.16
2018-02-04T02:59:34.969Z,96673.45
2018-02-04T03:02:02.511Z,96671.58
2018-02-04T03:04:30.025Z,96673.62
2018-02-04T03:06:57.754Z,96680.41
2018-02-04T03:09:25.272Z,96680.81
2018-02-04T03:11:52.794Z,96680.89
2018-02-04T03:14:20.345Z,96684.83
2018-02-04T03:16:47.854Z,96685.14
2018-02-04T03:19:15.675Z,96683.44
2018-02-04T03:21:43.193Z,96685.58
2018-02-04T03:24:10.703Z,96691.48
2018-02-04T03:26:38.250Z,96687.87
2018-02-04T03:29:06.424Z,96685.78
2018-02-04T03:31:33.979Z,96690.82
2018-02-04T03:34:01.491Z,96688.75
2018-02-04T03:36:29.014Z,96690.88
2018-02-04T03:38:56.551Z,96685.20
2018-02-04T03:41:24.061Z,96691.79
2018-02-04T03:43:51.781Z,96694.41
2018-02-04T03:46:19.297Z,96698.91
2018-02-04T03:48:47.232Z,96707.31
2018-02-04T03:51:14.780Z,96705.38
2018-02-04T03:53:42.351Z,96705.46
2018-02-04T03:56:09.985Z,96716.32
2018-02-04T03:58:37.493Z,96720.14
2018-02-04T04:01:05.019Z,96726.03
2018-02-04T04:03:32.567Z,96729.02
2018-02-04T04:06:00.161Z,96725.34
2018-02-04T04:08:27.808Z,96734.14
2018-02-04T04:10:55.316Z,96734.49
2018-02-04T04:13:22.825Z,96736.57
2018-02-04T04:15:50.357Z,96744.06
2018-02-04T04:18:17.865Z,96740.31
2018-02-04T04:20:45.521Z,96740.73
2018-02-04T04:23:13.044Z,96744.92
2018-02-04T04:25:40.574Z,96746.56
2018-02-04T04:28:08.121Z,96751.97
2018-02-04T04:30:36.221Z,96747.73
2018-02-04T04:33:03.770Z,96745.97
2018-02-04T04:35:31.297Z,96745.00
2018-02-04T04:37:58.817Z,96749.58
2018-02-04T04:40:26.371Z,96749.81
2018-02-04T04:42:53.877Z,96749.36
2018-02-04T04:45:21.611Z,96749.85
2018-02-04T04:47:49.125Z,96752.28
2018-02-04T04:50:16.649Z,96746.29
2018-02-04T04:52:44.194Z,96749.86
2018-02-04T04:55:11.710Z,96746.11
2018-02-04T04:57:39.280Z,96740.31
2018-02-04T05:00:06.801Z,96745.00
2018-02-04T05:02:34.333Z,96744.97
2018-02-04T05:05:01.881Z,96740.80
2018-02-04T05:07:29.453Z,96740.42
2018-02-04T05:09:57.088Z,96744.28
2018-02-04T05:12:25.065Z,96753.12
2018-02-04T05:14:52.582Z,96752.77
2018-02-04T05:17:20.129Z,96756.13
2018-02-04T05:19:47.676Z,96753.73
2018-02-04T05:22:15.385Z,96755.42
2018-02-04T05:24:42.962Z,96764.60
2018-02-04T05:27:10.474Z,96762.61
2018-02-04T05:29:38.027Z,96773.42
2018-02-04T05:32:05.542Z,96774.36
2018-02-04T05:34:33.288Z,96774.34
2018-02-04T05:37:00.814Z,96778.94
2018-02-04T05:39:28.325Z,96785.16
2018-02-04T05:41:55.867Z,96788.89
2018-02-04T05:44:23.381Z,96793.44
2018-02-04T05:46:50.945Z,96790.12
2018-02-04T05:49:18.477Z,96795.47
2018-02-04T05:51:45.992Z,96802.95
2018-02-04T05:54:13.533Z,96809.25
2018-02-04T05:56:41.106Z,96811.77
2018-02-04T05:59:08.902Z,96818.03
2018-02-04T06:01:36.412Z,96823.44
2018-02-04T06:04:03.932Z,96825.92
2018-02-04T06:06:31.477Z,96826.34
2018-02-04T06:08:58.989Z,96832.55
2018-02-04T06:11:26.873Z,96843.39
2018-02-04T06:13:54.394Z,96836.38
2018-02-04T06:16:21.902Z,96847.14
2018-02-04T06:18:49.452Z,96845.49
2018-02-04T06:21:16.973Z,96849.65
2018-02-04T06:23:44.545Z,96855.10
2018-02-04T06:26:12.065Z,96855.56
2018-02-04T06:28:39.578Z,96858.11
2018-02-04T06:31:07.117Z,96858.41
2018-02-04T06:33:34.641Z,96865.06
2018-02-04T06:36:02.592Z,96867.53
2018-02-04T06:38:30.108Z,96870.88
2018-02-04T06:40:57.624Z,96876.33
2018-02-04T06:45:58.917Z,96879.28
2018-02-04T06:48:26.472Z,96884.68
2018-02-04T06:50:53.998Z,96891.41
2018-02-04T06:53:21.518Z,96896.34
2018-02-04T06:55:49.076Z,96900.09
2018-02-04T06:58:16.589Z,96900.06
2018-02-04T07:00:44.137Z,96909.42
2018-02-04T07:03:11.645Z,96903.83
2018-02-04T07:05:39.193Z,96911.27
2018-02-04T07:08:06.744Z,96914.96
2018-02-04T07:10:34.307Z,96913.11
2018-02-04T07:13:04.474Z,96918.84
2018-02-04T07:15:31.993Z,96926.28
2018-02-04T07:17:59.501Z,96922.39
2018-02-04T07:20:27.098Z,96926.48
2018-02-04T07:22:54.578Z,96926.45
2018-02-04T07:25:22.133Z,96936.33
2018-02-04T07:27:49.673Z,96942.92
2018-02-04T07:30:17.203Z,96940.29
2018-02-04T07:32:44.753Z,96941.50
2018-02-04T07:35:12.278Z,96945.64
2018-02-04T07:37:39.910Z,96948.90
2018-02-04T07:40:07.430Z,96948.55
2018-02-04T07:42:34.948Z,96952.37
2018-02-04T07:45:02.480Z,96954.27
2018-02-04T07:47:30.007Z,96961.03
2018-02-04T07:49:57.581Z,96958.38
2018-02-04T07:52:25.745Z,96963.78
2018-02-04T07:54:53.262Z,96972.72
2018-02-04T07:57:20.806Z,96967.98
2018-02-04T07:59:48.329Z,96969.81
2018-02-04T08:02:16.057Z,96971.77
2018-02-04T08:07:10.487Z,96961.49
2018-02-04T08:09:38.155Z,96967.18
2018-02-04T08:12:05.673Z,96970.85
2018-02-04T08:14:33.317Z,96964.67
2018-02-04T08:17:00.879Z,96973.20
2018-02-04T08:19:28.414Z,96977.86
2018-02-04T08:21:55.974Z,96977.62
2018-02-04T08:24:23.494Z,96974.35
2018-02-04T08:26:51.336Z,96987.99
2018-02-04T08:29:18.853Z,96987.24
2018-02-04T08:31:46.430Z,96978.94
2018-02-04T08:34:13.990Z,96986.69
2018-02-04T08:36:41.526Z,96983.78
2018-02-04T08:39:09.214Z,96985.95
2018-02-04T08:41:36.743Z,96990.93
2018-02-04T08:44:04.344Z,96989.96
2018-02-04T08:46:31.891Z,96987.70
2018-02-04T08:48:59.583Z,96992.80
2018-02-04T08:51:27.300Z,96993.20
2018-02-04T08:53:55.046Z,96994.33
2018-02-04T08:56:22.805Z,97001.30
2018-02-04T08:58:50.858Z,96999.88
2018-02-04T09:01:18.513Z,96998.16
2018-02-04T09:03:46.437Z,97000.59
2018-02-04T09:06:14.119Z,97004.16
2018-02-04T09:08:41.772Z,97005.92
2018-02-04T09:11:09.342Z,97011.07
2018-02-04T09:13:36.967Z,97012.75
2018-02-04T09:16:04.988Z,97018.13
2018-02-04T09:18:32.581Z,97020.41
2018-02-04T09:21:00.152Z,97024.73
2018-02-04T09:23:27.790Z,97017.97
2018-02-04T09:25:55.317Z,97022.73
2018-02-04T09:28:23.102Z,97022.90
2018-02-04T09:30:50.707Z,97026.80
2018-02-04T09:33:18.284Z,97033.42
2018-02-04T09:35:45.901Z,97038.00
2018-02-04T09:38:13.444Z,97034.75
2018-02-04T09:40:41.155Z,97043.50
2018-02-04T09:43:08.787Z,97047.41
2018-02-04T09:45:36.404Z,97046.59
2018-02-04T09:48:03.952Z,97050.22
2018-02-04T09:50:31.478Z,97057.69
2018-02-04T09:52:59.262Z,97051.67
2018-02-04T09:55:26.901Z,97054.44
2018-02-04T09:57:54.469Z,97054.98
2018-02-04T10:00:22.103Z,97058.30
2018-02-04T10:02:49.838Z,97057.02
2018-02-04T10:05:18.048Z,97058.47
2018-02-04T10:07:45.639Z,97061.91
2018-02-04T10:10:13.229Z,97061.97
2018-02-04T10:12:40.972Z,97062.11
2018-02-04T10:15:08.634Z,97065.07
2018-02-04T10:17:36.271Z,97069.44
2018-02-04T10:20:03.820Z,97074.70
2018-02-04T10:22:31.596Z,97072.20
2018-02-04T10:24:59.316Z,97071.84
2018-02-04T10:27:27.289Z,97076.63
2018-02-04T10:29:55.053Z,97082.03
2018-02-04T10:32:22.921Z,97078.12
2018-02-04T10:34:50.787Z,97072.33
2018-02-04T10:37:18.698Z,97083.91
2018-02-04T10:39:46.639Z,97088.66
2018-02-04T10:42:14.481Z,97086.17
2018-02-04T10:44:42.823Z,97089.00
2018-02-04T10:47:10.615Z,97093.92
2018-02-04T10:49:38.508Z,97096.27
2018-02-04T10:52:06.323Z,97090.37
2018-02-04T10:54:34.128Z,97089.17
2018-02-04T10:57:02.097Z,97092.56
2018-02-04T10:59:30.680Z,97097.72
2018-02-04T11:01:58.546Z,97098.76
2018-02-04T11:04:26.211Z,97096.36
2018-02-04T11:06:54.075Z,97101.75
2018-02-04T11:09:21.939Z,97093.45
2018-02-04T11:11:52.676Z,97098.00
2018-02-04T11:14:20.263Z,97094.34
2018-02-04T11:16:47.920Z,97092.77
2018-02-04T11:19:15.866Z,97101.52
2018-02-04T11:21:43.730Z,97096.37
2018-02-04T11:24:11.867Z,97091.43
2018-02-04T11:26:39.668Z,97094.25
2018-02-04T11:29:07.529Z,97091.88
2018-02-04T11:31:35.298Z,97089.36
2018-02-04T11:34:03.165Z,97090.56
2018-02-04T11:36:30.936Z,97090.97
2018-02-04T11:38:58.796Z,97091.21
2018-02-04T11:41:26.663Z,97093.93
2018-02-04T11:43:54.654Z,97093.06
2018-02-04T11:46:22.296Z,97095.13
2018-02-04T11:48:50.207Z,97093.32
2018-02-04T11:51:17.820Z,97095.16
2018-02-04T11:53:45.584Z,97092.79
2018-02-04T11:56:13.450Z,97092.52
2018-02-04T11:58:42.343Z,97083.03
2018-02-04T12:01:10.413Z,97089.08
2018-02-04T12:03:38.182Z,97088.89
2018-02-04T12:06:05.941Z,97095.66
2018-02-04T12:08:33.807Z,97091.34
2018-02-04T12:11:01.440Z,97092.56
2018-02-04T12:13:29.339Z,97088.80
2018-02-04T12:15:57.202Z,97089.16
2018-02-04T12:18:24.966Z,97091.27
2018-02-04T12:20:53.628Z,97092.73
2018-02-04T12:23:22.133Z,97099.59
2018-02-04T12:25:49.792Z,97097.39
2018-02-04T12:28:17.542Z,97103.31
2018-02-04T12:30:45.059Z,97103.66
2018-02-04T12:33:12.606Z,97096.31
2018-02-04T12:35:40.300Z,97098.08
2018-02-04T12:38:08.410Z,97098.13
2018-02-04T12:40:36.276Z,97096.52
2018-02-04T12:43:03.976Z,97097.48
2018-02-04T12:45:31.682Z,97101.47
2018-02-04T12:47:59.265Z,97108.38
2018-02-04T12:50:27.025Z,97111.57
2018-02-04T12:52:54.769Z,97126.82
2018-02-04T12:55:22.343Z,97125.91
2018-02-04T12:57:50.215Z,97129.27
2018-02-04T13:00:17.877Z,97125.96
2018-02-04T13:02:45.626Z,97133.78
2018-02-04T13:05:13.142Z,97139.15
2018-02-04T13:07:40.862Z,97143.91
2018-02-04T13:10:08.503Z,97136.73
2018-02-04T13:12:36.164Z,97138.77
2018-02-04T13:15:04.052Z,97138.20
2018-02-04T13:17:31.659Z,97148.00
2018-02-04T13:19:59.354Z,97142.69
2018-02-04T13:22:27.048Z,97150.45
2018-02-04T13:24:54.595Z,97156.48
2018-02-04T13:27:22.304Z,97158.33
2018-02-04T13:29:50.022Z,97155.70
2018-02-04T13:32:17.538Z,97165.58
2018-02-04T13:34:45.093Z,97163.50
2018-02-04T13:37:13.119Z,97172.29
2018-02-04T13:39:41.068Z,97175.56
2018-02-04T13:42:08.809Z,97178.08
2018-02-04T13:44:36.586Z,97182.39
2018-02-04T13:47:04.268Z,97180.00
2018-02-04T13:49:32.646Z,97188.95
2018-02-04T13:52:00.615Z,97185.22
2018-02-04T13:54:28.240Z,97192.66
2018-02-04T13:56:55.919Z,97201.11
2018-02-04T13:59:23.702Z,97197.72
2018-02-04T14:01:51.672Z,97194.84
2018-02-04T14:04:19.541Z,97199.90
2018-02-04T14:06:47.609Z,97196.37
2018-02-04T14:09:15.885Z,97203.94
2018-02-04T14:11:43.751Z,97205.30
2018-02-04T14:14:12.131Z,97205.02
2018-02-04T14:16:40.098Z,97209.75
2018-02-04T14:19:07.933Z,97217.58
2018-02-04T14:21:35.716Z,97222.02
2018-02-04T14:24:05.851Z,97219.96
2018-02-04T14:26:33.714Z,97225.02
2018-02-04T14:29:01.787Z,97224.67
2018-02-04T14:31:29.651Z,97232.80
2018-02-04T14:33:57.519Z,97232.65
2018-02-04T14:36:25.488Z,97234.28
2018-02-04T14:38:53.355Z,97233.56
2018-02-04T14:41:21.735Z,97243.20
2018-02-04T14:43:50.142Z,97235.34
2018-02-04T14:46:17.995Z,97233.52
2018-02-04T14:48:45.947Z,97243.66
2018-02-04T14:51:13.916Z,97242.48
2018-02-04T14:53:41.994Z,97246.34
2018-02-04T14:56:09.853Z,97250.27
2018-02-04T14:58:37.972Z,97251.31
2018-02-04T15:01:05.782Z,97254.50
2018-02-04T15:03:34.989Z,97257.30
2018-02-04T15:06:02.959Z,97256.32
2018-02-04T15:08:30.825Z,97264.22
2018-02-04T15:10:58.691Z,97258.94
2018-02-04T15:13:27.351Z,97263.20
2018-02-04T15:15:55.448Z,97260.51
2018-02-04T15:18:24.032Z,97261.79
2018-02-04T15:20:51.919Z,97267.67
2018-02-04T15:23:19.769Z,97268.50
2018-02-04T15:25:47.631Z,97273.13
2018-02-04T15:28:15.502Z,97274.61
2018-02-04T15:30:43.468Z,97275.41
2018-02-04T15:33:11.435Z,97278.05
2018-02-04T15:35:39.301Z,97288.48
2018-02-04T15:38:07.167Z,97287.36
2018-02-04T15:40:34.929Z,97293.63
2018-02-04T15:43:03.007Z,97301.98
2018-02-04T15:45:30.870Z,97299.89
2018-02-04T15:47:58.638Z,97299.44
2018-02-04T15:50:26.489Z,97306.69
2018-02-04T15:52:54.338Z,97310.08
2018-02-04T15:55:22.235Z,97316.62
2018-02-04T15:57:50.100Z,97317.48
2018-02-04T16:00:17.968Z,97317.98
2018-02-04T16:04:32.533Z,97323.64
2018-02-04T16:07:00.503Z,97329.83
2018-02-04T16:09:28.370Z,97320.82
2018-02-04T16:11:56.107Z,97322.12
2018-02-04T16:14:23.821Z,97332.15
2018-02-04T16:16:51.558Z,97330.48
2018-02-04T16:19:19.835Z,97327.52
2018-02-04T16:21:47.707Z,97327.20
2018-02-04T16:24:15.571Z,97329.76
2018-02-04T16:26:43.538Z,97336.00
2018-02-04T16:29:11.610Z,97340.34
2018-02-04T16:31:39.389Z,97346.39
2018-02-04T16:34:07.243Z,97340.92
2018-02-04T16:36:35.074Z,97342.27
2018-02-04T16:39:03.075Z,97348.95
2018-02-04T16:41:31.865Z,97347.33
2018-02-04T16:43:59.934Z,97354.89
2018-02-04T16:46:28.416Z,97348.45
2018-02-04T16:48:57.224Z,97351.76
2018-02-04T16:51:25.889Z,97358.13
2018-02-04T16:53:53.737Z,97349.30
2018-02-04T16:56:21.680Z,97356.05
2018-02-04T16:58:49.551Z,97358.17
2018-02-04T17:01:17.416Z,97354.81
2018-02-04T17:03:45.280Z,97356.90
2018-02-04T17:06:13.190Z,97358.98
2018-02-04T17:08:41.261Z,97370.27
2018-02-04T17:11:08.933Z,97370.37
2018-02-04T17:13:36.789Z,97371.08
2018-02-04T17:16:05.237Z,97366.92
2018-02-04T17:18:33.137Z,97372.37
2018-02-04T17:21:01.176Z,97371.49
2018-02-04T17:23:29.074Z,97373.70
2018-02-04T17:25:56.931Z,97378.24
2018-02-04T17:28:24.705Z,97377.75
2018-02-04T17:30:52.471Z,97381.52
2018-02-04T17:33:20.403Z,97385.70
2018-02-04T17:35:48.305Z,97384.52
2018-02-04T17:38:16.172Z,97382.77
2018-02-04T17:40:44.041Z,97379.03
2018-02-04T17:43:11.905Z,97383.66
2018-02-04T17:45:40.283Z,97378.98
2018-02-04T17:48:08.150Z,97383.97
2018-02-04T17:50:36.634Z,97389.03
2018-02-04T17:53:04.480Z,97392.79
2018-02-04T17:55:32.978Z,97394.05
2018-02-04T17:58:01.153Z,97405.83
2018-02-04T18:00:28.984Z,97403.30
2018-02-04T18:02:59.160Z,97404.88
2018-02-04T18:05:27.107Z,97406.92
2018-02-04T18:07:54.974Z,97404.83
2018-02-04T18:10:23.044Z,97403.20
2018-02-04T18:12:50.911Z,97399.00
2018-02-04T18:15:18.735Z,97401.05
2018-02-04T18:17:46.745Z,97409.01
2018-02-04T18:20:15.818Z,97413.58
2018-02-04T18:22:44.018Z,97409.05
2018-02-04T18:25:12.150Z,97414.41
2018-02-04T18:27:40.061Z,97419.77
2018-02-04T18:30:08.434Z,97414.34
2018-02-04T18:32:36.300Z,97421.19
2018-02-04T18:35:04.576Z,97420.28
2018-02-04T18:37:32.442Z,97423.98
2018-02-04T18:40:00.398Z,97429.06
2018-02-04T18:42:28.341Z,97431.90
2018-02-04T18:44:56.257Z,97436.88
2018-02-04T18:47:24.133Z,97436.12
2018-02-04T18:49:52.128Z,97436.88
2018-02-04T18:52:20.052Z,97440.64
2018-02-04T18:54:47.917Z,97439.41
2018-02-04T18:57:15.888Z,97439.80
2018-02-04T18:59:44.790Z,97442.73
2018-02-04T19:02:14.454Z,97441.55
2018-02-04T19:04:42.343Z,97438.63
2018-02-04T19:07:12.675Z,97439.57
2018-02-04T19:09:41.365Z,97438.70
2018-02-04T19:12:09.438Z,97446.58
2018-02-04T19:14:37.301Z,97456.20
2018-02-04T19:17:05.681Z,97452.89
2018-02-04T19:19:33.651Z,97451.59
2018-02-04T19:22:01.516Z,97457.79
2018-02-04T19:24:29.648Z,97459.88
2018-02-04T19:26:57.840Z,97451.95
2018-02-04T19:29:25.729Z,97457.77
2018-02-04T19:31:55.439Z,97460.28
2018-02-04T19:34:23.217Z,97464.03
2018-02-04T19:36:51.356Z,97471.12
2018-02-04T19:39:20.473Z,97461.60
2018-02-04T19:41:48.415Z,97471.20
2018-02-04T19:44:16.412Z,97470.30
2018-02-04T19:46:45.125Z,97474.86
2018-02-04T19:49:14.042Z,97474.09
2018-02-04T19:51:41.931Z,97475.73
2018-02-04T19:54:09.824Z,97478.63
2018-02-04T19:56:37.766Z,97476.95
2018-02-04T19:59:05.833Z,97478.66
2018-02-04T20:01:34.653Z,97481.12
2018-02-04T20:04:02.665Z,97484.88
2018-02-04T20:06:30.555Z,97490.28
2018-02-04T20:08:58.456Z,97491.11
2018-02-04T20:11:26.320Z,97493.21
2018-02-04T20:13:54.331Z,97493.70
2018-02-04T20:16:22.434Z,97498.67
2018-02-04T20:18:51.149Z,97501.16
2018-02-04T20:21:19.130Z,97500.75
2018-02-04T20:23:46.948Z,97498.62
2018-02-04T20:26:15.113Z,97501.97
2018-02-04T20:28:42.925Z,97504.44
2018-02-04T20:31:10.891Z,97503.28
2018-02-04T20:33:50.713Z,97506.16
2018-02-04T20:36:18.708Z,97508.28
2018-02-04T20:38:46.576Z,97511.14
2018-02-04T20:41:15.950Z,97510.73
2018-02-04T20:43:43.950Z,97521.61
2018-02-04T20:46:11.916Z,97515.32
2018-02-04T20:48:39.859Z,97519.50
2018-02-04T20:51:08.512Z,97526.56
2018-02-04T20:53:36.649Z,97526.58
2018-02-04T20:56:04.611Z,97525.37
2018-02-04T20:58:33.985Z,97527.00
2018-02-04T21:01:01.982Z,97526.98
2018-02-04T21:03:30.053Z,97530.80
2018-02-04T21:06:00.516Z,97529.91
2018-02-04T21:08:28.718Z,97534.07
2018-02-04T21:10:56.621Z,97532.45
2018-02-04T21:13:24.692Z,97524.13
2018-02-04T21:15:52.560Z,97532.89
2018-02-04T21:18:20.339Z,97535.86
2018-02-04T21:20:48.940Z,97535.80
2018-02-04T21:23:16.876Z,97538.28
2018-02-04T21:25:45.977Z,97529.95
2018-02-04T21:28:13.901Z,97538.67
2018-02-04T21:30:41.809Z,97546.57
2018-02-04T21:33:09.879Z,97547.83
2018-02-04T21:35:37.697Z,97550.77
2018-02-04T21:38:05.617Z,97557.84
2018-02-04T21:40:33.580Z,97559.06
2018-02-04T21:43:01.401Z,97562.44
2018-02-04T21:45:32.302Z,97564.12
2018-02-04T21:48:00.042Z,97572.45
2018-02-04T21:50:27.875Z,97568.33
2018-02-04T21:52:55.988Z,97572.08
2018-02-04T21:55:23.964Z,97567.48
2018-02-04T21:57:51.636Z,97562.87
2018-02-04T22:00:19.789Z,97564.96
2018-02-04T22:02:47.533Z,97562.87
2018-02-04T22:05:15.420Z,97562.03
2018-02-04T22:07:43.184Z,97567.00
2018-02-04T22:10:11.008Z,97567.42
2018-02-04T22:12:38.648Z,97568.23
2018-02-04T22:15:06.257Z,97568.28
2018-02-04T22:17:33.820Z,97570.78
2018-02-04T22:20:01.414Z,97577.86
2018-02-04T22:22:29.565Z,97585.78
2018-02-04T22:24:57.514Z,97581.62
2018-02-04T22:27:25.063Z,97582.84
2018-02-04T22:29:53.061Z,97584.10
2018-02-04T22:32:20.637Z,97584.53
2018-02-04T22:34:48.164Z,97589.94
2018-02-04T22:37:15.721Z,97587.44
2018-02-04T22:39:44.125Z,97586.19
2018-02-04T22:42:11.873Z,97592.91
2018-02-04T22:44:39.545Z,97591.23
2018-02-04T22:47:07.547Z,97589.56
2018-02-04T22:49:35.070Z,97592.50
2018-02-04T22:52:02.617Z,97602.06
2018-02-04T22:54:30.174Z,97591.61
2018-02-04T22:56:57.854Z,97592.44
2018-02-04T22:59:25.473Z,97598.25
2018-02-04T23:01:53.016Z,97593.28
2018-02-04T23:04:20.586Z,97601.63
2018-02-04T23:06:48.102Z,97602.86
2018-02-04T23:09:15.673Z,97597.88
2018-02-04T23:11:43.469Z,97603.75
2018-02-04T23:14:11.006Z,97600.43
2018-02-04T23:16:38.551Z,97610.01
2018-02-04T23:19:06.066Z,97607.88
2018-02-04T23:21:33.628Z,97605.81
2018-02-04T23:24:01.173Z,97604.55
2018-02-04T23:26:28.685Z,97612.08
2018-02-04T23:28:56.228Z,97605.02
2018-02-04T23:31:23.765Z,97603.32
2018-02-04T23:33:51.539Z,97604.17
2018-02-04T23:36:19.066Z,97604.18
2018-02-04T23:38:46.593Z,97598.30
2018-02-04T23:41:14.200Z,97603.73
2018-02-04T23:43:41.713Z,97607.52
2018-02-04T23:46:09.441Z,97610.44
2018-02-04T23:48:36.993Z,97601.64
2018-02-04T23:51:04.517Z,97604.20
2018-02-04T23:53:32.063Z,97598.75
2018-02-04T23:55:59.573Z,97604.98
2018-02-04T23:58:27.335Z,97608.73
